sensor_id;sensor_type;location;lat;lon;timestamp;temperature;humidity
83683;DHT22;73663;51.298;5.802;2024-01-15T00:02:55;6.30;57.20
83683;DHT22;73663;51.298;5.802;2024-01-15T00:07:56;6.30;57.20
83683;DHT22;73663;51.298;5.802;2024-01-15T00:12:56;6.30;57.20
83683;DHT22;73663;51.298;5.802;2024-01-15T00:17:57;6.30;57.20
83683;DHT22;73663;51.298;5.802;2024-01-15T00:22:57;6.30;57.20
83683;DHT22;73663;51.298;5.802;2024-01-15T00:28:05;6.30;57.30
83683;DHT22;73663;51.298;5.802;2024-01-15T00:33:05;6.40;57.30
83683;DHT22;73663;51.298;5.802;2024-01-15T00:38:06;6.50;57.30
83683;DHT22;73663;51.298;5.802;2024-01-15T00:43:07;6.50;57.40
83683;DHT22;73663;51.298;5.802;2024-01-15T00:48:08;6.60;57.40
83683;DHT22;73663;51.298;5.802;2024-01-15T00:53:09;6.60;57.40
83683;DHT22;73663;51.298;5.802;2024-01-15T00:58:09;6.60;57.40
83683;DHT22;73663;51.298;5.802;2024-01-15T01:03:10;6.60;57.40
83683;DHT22;73663;51.298;5.802;2024-01-15T01:08:10;6.50;57.30
83683;DHT22;73663;51.298;5.802;2024-01-15T01:13:11;6.50;57.40
83683;DHT22;73663;51.298;5.802;2024-01-15T01:18:11;6.50;57.50
83683;DHT22;73663;51.298;5.802;2024-01-15T01:23:12;6.50;57.50
83683;DHT22;73663;51.298;5.802;2024-01-15T01:28:13;6.60;57.60
83683;DHT22;73663;51.298;5.802;2024-01-15T01:33:13;6.60;57.60
83683;DHT22;73663;51.298;5.802;2024-01-15T01:38:20;6.70;57.50
83683;DHT22;73663;51.298;5.802;2024-01-15T01:43:21;6.70;57.50
83683;DHT22;73663;51.298;5.802;2024-01-15T01:48:22;6.70;57.50
83683;DHT22;73663;51.298;5.802;2024-01-15T01:53:24;6.60;57.60
83683;DHT22;73663;51.298;5.802;2024-01-15T01:58:25;6.70;57.60
83683;DHT22;73663;51.298;5.802;2024-01-15T02:03:27;6.70;57.60
83683;DHT22;73663;51.298;5.802;2024-01-15T02:08:28;6.70;57.70
83683;DHT22;73663;51.298;5.802;2024-01-15T02:13:29;6.70;57.60
83683;DHT22;73663;51.298;5.802;2024-01-15T02:18:42;6.70;57.70
83683;DHT22;73663;51.298;5.802;2024-01-15T02:23:42;6.70;57.70
83683;DHT22;73663;51.298;5.802;2024-01-15T02:28:43;6.70;57.60
83683;DHT22;73663;51.298;5.802;2024-01-15T02:33:44;6.70;57.50
83683;DHT22;73663;51.298;5.802;2024-01-15T02:38:46;6.60;57.50
83683;DHT22;73663;51.298;5.802;2024-01-15T02:43:47;6.60;57.50
83683;DHT22;73663;51.298;5.802;2024-01-15T02:48:47;6.50;57.50
83683;DHT22;73663;51.298;5.802;2024-01-15T02:53:49;6.50;57.60
83683;DHT22;73663;51.298;5.802;2024-01-15T02:58:50;6.50;57.50
83683;DHT22;73663;51.298;5.802;2024-01-15T03:03:51;6.50;57.50
83683;DHT22;73663;51.298;5.802;2024-01-15T03:08:51;6.50;57.50
83683;DHT22;73663;51.298;5.802;2024-01-15T03:13:52;6.40;57.50
83683;DHT22;73663;51.298;5.802;2024-01-15T03:18:52;6.40;57.50
83683;DHT22;73663;51.298;5.802;2024-01-15T03:23:53;6.40;57.50
83683;DHT22;73663;51.298;5.802;2024-01-15T03:28:54;6.40;57.50
83683;DHT22;73663;51.298;5.802;2024-01-15T03:33:55;6.40;57.60
83683;DHT22;73663;51.298;5.802;2024-01-15T03:38:55;6.40;57.60
83683;DHT22;73663;51.298;5.802;2024-01-15T03:43:56;6.40;57.60
83683;DHT22;73663;51.298;5.802;2024-01-15T03:49:03;6.40;57.70
83683;DHT22;73663;51.298;5.802;2024-01-15T03:54:03;6.40;57.70
83683;DHT22;73663;51.298;5.802;2024-01-15T03:59:04;6.50;57.70
83683;DHT22;73663;51.298;5.802;2024-01-15T04:04:04;6.50;57.70
83683;DHT22;73663;51.298;5.802;2024-01-15T04:09:05;6.60;57.60
83683;DHT22;73663;51.298;5.802;2024-01-15T04:14:05;6.60;57.70
83683;DHT22;73663;51.298;5.802;2024-01-15T04:19:06;6.60;57.70
83683;DHT22;73663;51.298;5.802;2024-01-15T04:24:07;6.60;57.70
83683;DHT22;73663;51.298;5.802;2024-01-15T04:29:07;6.60;57.70
83683;DHT22;73663;51.298;5.802;2024-01-15T04:34:08;6.60;57.70
83683;DHT22;73663;51.298;5.802;2024-01-15T04:39:14;6.60;57.60
83683;DHT22;73663;51.298;5.802;2024-01-15T04:44:15;6.60;57.70
83683;DHT22;73663;51.298;5.802;2024-01-15T04:49:16;6.60;57.70
83683;DHT22;73663;51.298;5.802;2024-01-15T04:54:16;6.70;57.70
83683;DHT22;73663;51.298;5.802;2024-01-15T04:59:18;6.70;57.70
83683;DHT22;73663;51.298;5.802;2024-01-15T05:04:18;6.70;57.70
83683;DHT22;73663;51.298;5.802;2024-01-15T05:09:19;6.60;57.60
83683;DHT22;73663;51.298;5.802;2024-01-15T05:14:19;6.50;57.60
83683;DHT22;73663;51.298;5.802;2024-01-15T05:19:20;6.50;57.70
83683;DHT22;73663;51.298;5.802;2024-01-15T05:24:20;6.50;57.70
83683;DHT22;73663;51.298;5.802;2024-01-15T05:29:21;6.60;57.70
83683;DHT22;73663;51.298;5.802;2024-01-15T05:34:21;6.60;57.70
83683;DHT22;73663;51.298;5.802;2024-01-15T05:39:22;6.60;57.70
83683;DHT22;73663;51.298;5.802;2024-01-15T05:44:22;6.70;57.70
83683;DHT22;73663;51.298;5.802;2024-01-15T05:49:23;6.60;57.70
83683;DHT22;73663;51.298;5.802;2024-01-15T05:54:24;6.70;57.60
83683;DHT22;73663;51.298;5.802;2024-01-15T05:59:24;6.60;57.60
83683;DHT22;73663;51.298;5.802;2024-01-15T06:04:25;6.60;57.70
83683;DHT22;73663;51.298;5.802;2024-01-15T06:09:26;6.60;57.70
83683;DHT22;73663;51.298;5.802;2024-01-15T06:14:28;6.70;57.70
83683;DHT22;73663;51.298;5.802;2024-01-15T06:19:28;6.70;57.70
83683;DHT22;73663;51.298;5.802;2024-01-15T06:24:29;6.80;57.70
83683;DHT22;73663;51.298;5.802;2024-01-15T06:29:30;6.80;57.80
83683;DHT22;73663;51.298;5.802;2024-01-15T06:34:30;6.80;57.80
83683;DHT22;73663;51.298;5.802;2024-01-15T06:39:31;6.80;57.80
83683;DHT22;73663;51.298;5.802;2024-01-15T06:44:31;6.80;57.80
83683;DHT22;73663;51.298;5.802;2024-01-15T06:49:32;6.90;57.70
83683;DHT22;73663;51.298;5.802;2024-01-15T06:54:32;6.90;57.70
83683;DHT22;73663;51.298;5.802;2024-01-15T06:59:34;6.80;57.70
83683;DHT22;73663;51.298;5.802;2024-01-15T07:04:35;6.70;57.70
83683;DHT22;73663;51.298;5.802;2024-01-15T07:09:36;6.60;57.60
83683;DHT22;73663;51.298;5.802;2024-01-15T07:14:36;6.40;57.50
83683;DHT22;73663;51.298;5.802;2024-01-15T07:19:37;6.20;57.70
83683;DHT22;73663;51.298;5.802;2024-01-15T07:24:38;6.10;57.70
83683;DHT22;73663;51.298;5.802;2024-01-15T07:29:38;6.10;57.80
83683;DHT22;73663;51.298;5.802;2024-01-15T07:34:39;6.20;57.80
83683;DHT22;73663;51.298;5.802;2024-01-15T07:39:45;6.20;57.80
83683;DHT22;73663;51.298;5.802;2024-01-15T07:44:46;6.30;57.90
83683;DHT22;73663;51.298;5.802;2024-01-15T07:49:47;6.20;57.90
83683;DHT22;73663;51.298;5.802;2024-01-15T07:54:47;6.20;57.80
83683;DHT22;73663;51.298;5.802;2024-01-15T07:59:48;6.10;57.90
83683;DHT22;73663;51.298;5.802;2024-01-15T08:04:49;6.10;57.90
83683;DHT22;73663;51.298;5.802;2024-01-15T08:09:49;6.10;57.80
83683;DHT22;73663;51.298;5.802;2024-01-15T08:14:50;6.00;57.80
83683;DHT22;73663;51.298;5.802;2024-01-15T08:19:50;6.00;57.90
83683;DHT22;73663;51.298;5.802;2024-01-15T08:24:51;6.00;58.00
83683;DHT22;73663;51.298;5.802;2024-01-15T08:29:52;6.10;58.00
83683;DHT22;73663;51.298;5.802;2024-01-15T08:34:53;6.10;58.00
83683;DHT22;73663;51.298;5.802;2024-01-15T08:39:53;6.20;58.00
83683;DHT22;73663;51.298;5.802;2024-01-15T08:44:54;6.30;58.00
83683;DHT22;73663;51.298;5.802;2024-01-15T08:49:54;6.40;57.90
83683;DHT22;73663;51.298;5.802;2024-01-15T08:54:58;6.40;58.00
83683;DHT22;73663;51.298;5.802;2024-01-15T08:59:59;6.50;58.00
83683;DHT22;73663;51.298;5.802;2024-01-15T09:05:00;6.50;58.00
83683;DHT22;73663;51.298;5.802;2024-01-15T09:10:00;6.50;58.00
83683;DHT22;73663;51.298;5.802;2024-01-15T09:15:01;6.50;58.00
83683;DHT22;73663;51.298;5.802;2024-01-15T09:20:05;6.50;57.90
83683;DHT22;73663;51.298;5.802;2024-01-15T09:25:06;6.30;57.90
83683;DHT22;73663;51.298;5.802;2024-01-15T09:30:07;6.30;57.90
83683;DHT22;73663;51.298;5.802;2024-01-15T09:35:08;6.20;58.10
83683;DHT22;73663;51.298;5.802;2024-01-15T09:40:12;6.30;58.10
83683;DHT22;73663;51.298;5.802;2024-01-15T09:45:16;6.40;58.00
83683;DHT22;73663;51.298;5.802;2024-01-15T09:50:17;6.40;58.00
83683;DHT22;73663;51.298;5.802;2024-01-15T09:55:18;6.40;58.00
83683;DHT22;73663;51.298;5.802;2024-01-15T10:00:20;6.40;58.00
83683;DHT22;73663;51.298;5.802;2024-01-15T10:05:21;6.40;58.00
83683;DHT22;73663;51.298;5.802;2024-01-15T10:10:21;6.50;58.10
83683;DHT22;73663;51.298;5.802;2024-01-15T10:15:22;6.50;58.10
83683;DHT22;73663;51.298;5.802;2024-01-15T10:20:34;6.60;58.10
83683;DHT22;73663;51.298;5.802;2024-01-15T10:25:42;6.60;58.10
83683;DHT22;73663;51.298;5.802;2024-01-15T10:30:43;6.60;58.10
83683;DHT22;73663;51.298;5.802;2024-01-15T10:35:44;6.60;58.10
83683;DHT22;73663;51.298;5.802;2024-01-15T10:40:44;6.60;58.10
83683;DHT22;73663;51.298;5.802;2024-01-15T10:45:45;6.70;58.10
83683;DHT22;73663;51.298;5.802;2024-01-15T10:50:47;6.90;58.30
83683;DHT22;73663;51.298;5.802;2024-01-15T10:55:47;7.50;58.20
83683;DHT22;73663;51.298;5.802;2024-01-15T11:00:56;8.10;57.90
83683;DHT22;73663;51.298;5.802;2024-01-15T11:05:56;8.60;57.70
83683;DHT22;73663;51.298;5.802;2024-01-15T11:10:57;8.90;57.70
83683;DHT22;73663;51.298;5.802;2024-01-15T11:16:02;8.90;57.20
83683;DHT22;73663;51.298;5.802;2024-01-15T11:26:34;9.20;56.90
83683;DHT22;73663;51.298;5.802;2024-01-15T11:37:01;8.40;57.10
83683;DHT22;73663;51.298;5.802;2024-01-15T11:42:04;7.90;57.30
83683;DHT22;73663;51.298;5.802;2024-01-15T11:47:06;7.50;57.40
83683;DHT22;73663;51.298;5.802;2024-01-15T11:52:10;7.70;58.10
83683;DHT22;73663;51.298;5.802;2024-01-15T11:57:18;8.60;58.20
83683;DHT22;73663;51.298;5.802;2024-01-15T12:02:22;9.00;57.20
83683;DHT22;73663;51.298;5.802;2024-01-15T12:07:23;8.90;57.20
83683;DHT22;73663;51.298;5.802;2024-01-15T12:12:53;8.50;57.10
83683;DHT22;73663;51.298;5.802;2024-01-15T12:17:57;8.00;56.80
83683;DHT22;73663;51.298;5.802;2024-01-15T12:23:04;7.20;57.10
83683;DHT22;73663;51.298;5.802;2024-01-15T12:28:06;6.90;57.40
83683;DHT22;73663;51.298;5.802;2024-01-15T12:33:08;6.90;57.80
83683;DHT22;73663;51.298;5.802;2024-01-15T12:38:10;7.00;57.90
83683;DHT22;73663;51.298;5.802;2024-01-15T12:43:12;7.20;57.80
83683;DHT22;73663;51.298;5.802;2024-01-15T12:48:12;7.20;57.80
83683;DHT22;73663;51.298;5.802;2024-01-15T12:53:15;7.20;57.80
83683;DHT22;73663;51.298;5.802;2024-01-15T12:58:17;7.20;58.00
83683;DHT22;73663;51.298;5.802;2024-01-15T13:03:18;7.40;57.90
83683;DHT22;73663;51.298;5.802;2024-01-15T13:08:19;7.40;57.70
83683;DHT22;73663;51.298;5.802;2024-01-15T13:13:19;7.20;57.70
83683;DHT22;73663;51.298;5.802;2024-01-15T13:18:20;7.00;57.60
83683;DHT22;73663;51.298;5.802;2024-01-15T13:23:27;6.90;57.70
83683;DHT22;73663;51.298;5.802;2024-01-15T13:28:28;6.90;57.70
83683;DHT22;73663;51.298;5.802;2024-01-15T13:33:28;6.90;57.90
83683;DHT22;73663;51.298;5.802;2024-01-15T13:38:29;7.00;58.00
83683;DHT22;73663;51.298;5.802;2024-01-15T13:43:36;7.00;57.90
83683;DHT22;73663;51.298;5.802;2024-01-15T13:48:36;7.00;57.60
83683;DHT22;73663;51.298;5.802;2024-01-15T13:53:40;6.80;57.60
83683;DHT22;73663;51.298;5.802;2024-01-15T13:58:40;6.60;57.60
83683;DHT22;73663;51.298;5.802;2024-01-15T14:03:41;6.50;57.60
83683;DHT22;73663;51.298;5.802;2024-01-15T14:08:41;6.40;57.70
83683;DHT22;73663;51.298;5.802;2024-01-15T14:13:42;6.30;57.80
83683;DHT22;73663;51.298;5.802;2024-01-15T14:18:42;6.40;57.80
83683;DHT22;73663;51.298;5.802;2024-01-15T14:23:43;6.40;57.90
83683;DHT22;73663;51.298;5.802;2024-01-15T14:28:44;6.50;57.90
83683;DHT22;73663;51.298;5.802;2024-01-15T14:33:46;6.50;57.90
83683;DHT22;73663;51.298;5.802;2024-01-15T14:38:53;6.70;58.10
83683;DHT22;73663;51.298;5.802;2024-01-15T14:43:54;6.80;57.80
83683;DHT22;73663;51.298;5.802;2024-01-15T14:48:54;6.70;57.70
83683;DHT22;73663;51.298;5.802;2024-01-15T14:53:55;6.70;57.90
83683;DHT22;73663;51.298;5.802;2024-01-15T14:58:55;6.90;57.90
83683;DHT22;73663;51.298;5.802;2024-01-15T15:03:56;6.90;57.70
83683;DHT22;73663;51.298;5.802;2024-01-15T15:08:56;6.90;57.80
83683;DHT22;73663;51.298;5.802;2024-01-15T15:14:02;6.80;57.80
83683;DHT22;73663;51.298;5.802;2024-01-15T15:19:04;6.80;57.80
83683;DHT22;73663;51.298;5.802;2024-01-15T15:24:04;6.70;57.90
83683;DHT22;73663;51.298;5.802;2024-01-15T15:29:05;6.70;57.90
83683;DHT22;73663;51.298;5.802;2024-01-15T15:34:06;6.70;57.90
83683;DHT22;73663;51.298;5.802;2024-01-15T15:39:06;6.60;57.90
83683;DHT22;73663;51.298;5.802;2024-01-15T15:44:07;6.60;57.90
83683;DHT22;73663;51.298;5.802;2024-01-15T15:49:07;6.60;57.90
83683;DHT22;73663;51.298;5.802;2024-01-15T15:54:08;6.60;57.90
83683;DHT22;73663;51.298;5.802;2024-01-15T15:59:08;6.50;57.90
83683;DHT22;73663;51.298;5.802;2024-01-15T16:04:09;6.50;57.90
83683;DHT22;73663;51.298;5.802;2024-01-15T16:09:10;6.40;57.90
83683;DHT22;73663;51.298;5.802;2024-01-15T16:14:11;6.30;57.90
83683;DHT22;73663;51.298;5.802;2024-01-15T16:19:12;6.20;57.80
83683;DHT22;73663;51.298;5.802;2024-01-15T16:24:12;6.10;57.80
83683;DHT22;73663;51.298;5.802;2024-01-15T16:29:13;6.10;57.80
83683;DHT22;73663;51.298;5.802;2024-01-15T16:34:13;6.00;57.90
83683;DHT22;73663;51.298;5.802;2024-01-15T16:39:14;6.00;57.90
83683;DHT22;73663;51.298;5.802;2024-01-15T16:44:14;6.00;57.90
83683;DHT22;73663;51.298;5.802;2024-01-15T16:49:15;5.90;57.90
83683;DHT22;73663;51.298;5.802;2024-01-15T16:54:16;5.90;57.90
83683;DHT22;73663;51.298;5.802;2024-01-15T16:59:16;5.80;57.90
83683;DHT22;73663;51.298;5.802;2024-01-15T17:04:17;5.80;57.90
83683;DHT22;73663;51.298;5.802;2024-01-15T17:09:17;5.80;57.90
83683;DHT22;73663;51.298;5.802;2024-01-15T17:14:18;5.80;57.90
83683;DHT22;73663;51.298;5.802;2024-01-15T17:19:18;5.80;58.00
83683;DHT22;73663;51.298;5.802;2024-01-15T17:24:19;5.80;58.00
83683;DHT22;73663;51.298;5.802;2024-01-15T17:29:20;5.80;58.00
83683;DHT22;73663;51.298;5.802;2024-01-15T17:34:21;5.80;57.90
83683;DHT22;73663;51.298;5.802;2024-01-15T17:39:21;5.80;57.90
83683;DHT22;73663;51.298;5.802;2024-01-15T17:44:22;5.80;57.90
83683;DHT22;73663;51.298;5.802;2024-01-15T17:49:25;5.80;57.90
83683;DHT22;73663;51.298;5.802;2024-01-15T17:54:27;5.80;57.90
83683;DHT22;73663;51.298;5.802;2024-01-15T17:59:28;5.80;57.90
83683;DHT22;73663;51.298;5.802;2024-01-15T18:04:29;5.80;57.90
83683;DHT22;73663;51.298;5.802;2024-01-15T18:09:29;5.70;57.80
83683;DHT22;73663;51.298;5.802;2024-01-15T18:14:30;5.70;57.90
83683;DHT22;73663;51.298;5.802;2024-01-15T18:19:37;5.70;57.90
83683;DHT22;73663;51.298;5.802;2024-01-15T18:24:37;5.70;57.90
83683;DHT22;73663;51.298;5.802;2024-01-15T18:29:38;5.70;57.90
83683;DHT22;73663;51.298;5.802;2024-01-15T18:34:39;5.70;57.90
83683;DHT22;73663;51.298;5.802;2024-01-15T18:39:43;5.70;57.90
83683;DHT22;73663;51.298;5.802;2024-01-15T18:44:44;5.70;57.80
83683;DHT22;73663;51.298;5.802;2024-01-15T18:49:44;5.70;57.90
83683;DHT22;73663;51.298;5.802;2024-01-15T18:54:45;5.70;57.90
83683;DHT22;73663;51.298;5.802;2024-01-15T18:59:45;5.80;58.00
83683;DHT22;73663;51.298;5.802;2024-01-15T19:04:46;5.90;58.00
83683;DHT22;73663;51.298;5.802;2024-01-15T19:09:46;5.90;57.90
83683;DHT22;73663;51.298;5.802;2024-01-15T19:14:47;5.80;57.90
83683;DHT22;73663;51.298;5.802;2024-01-15T19:19:48;5.80;57.90
83683;DHT22;73663;51.298;5.802;2024-01-15T19:24:54;5.80;57.90
83683;DHT22;73663;51.298;5.802;2024-01-15T19:29:55;5.80;57.90
83683;DHT22;73663;51.298;5.802;2024-01-15T19:34:55;5.70;57.80
83683;DHT22;73663;51.298;5.802;2024-01-15T19:39:56;5.70;57.80
83683;DHT22;73663;51.298;5.802;2024-01-15T19:44:58;5.70;57.90
83683;DHT22;73663;51.298;5.802;2024-01-15T19:49:59;5.60;57.90
83683;DHT22;73663;51.298;5.802;2024-01-15T19:54:59;5.60;57.90
83683;DHT22;73663;51.298;5.802;2024-01-15T20:00:00;5.70;57.90
83683;DHT22;73663;51.298;5.802;2024-01-15T20:05:00;5.70;57.90
83683;DHT22;73663;51.298;5.802;2024-01-15T20:10:01;5.70;57.90
83683;DHT22;73663;51.298;5.802;2024-01-15T20:15:01;5.80;58.00
83683;DHT22;73663;51.298;5.802;2024-01-15T20:20:02;5.80;58.00
83683;DHT22;73663;51.298;5.802;2024-01-15T20:25:04;5.80;58.00
83683;DHT22;73663;51.298;5.802;2024-01-15T20:30:05;5.90;58.00
83683;DHT22;73663;51.298;5.802;2024-01-15T20:35:12;5.90;58.00
83683;DHT22;73663;51.298;5.802;2024-01-15T20:40:13;6.00;58.10
83683;DHT22;73663;51.298;5.802;2024-01-15T20:45:14;6.00;58.10
83683;DHT22;73663;51.298;5.802;2024-01-15T20:50:15;6.10;58.20
83683;DHT22;73663;51.298;5.802;2024-01-15T20:55:22;6.20;58.20
83683;DHT22;73663;51.298;5.802;2024-01-15T21:00:23;6.20;58.20
83683;DHT22;73663;51.298;5.802;2024-01-15T21:05:23;6.30;58.10
83683;DHT22;73663;51.298;5.802;2024-01-15T21:10:24;6.40;57.90
83683;DHT22;73663;51.298;5.802;2024-01-15T21:15:24;6.30;58.00
83683;DHT22;73663;51.298;5.802;2024-01-15T21:20:26;6.30;58.20
83683;DHT22;73663;51.298;5.802;2024-01-15T21:25:27;6.30;58.10
83683;DHT22;73663;51.298;5.802;2024-01-15T21:30:27;6.30;58.20
83683;DHT22;73663;51.298;5.802;2024-01-15T21:35:28;6.30;58.10
83683;DHT22;73663;51.298;5.802;2024-01-15T21:40:28;6.20;58.10
83683;DHT22;73663;51.298;5.802;2024-01-15T21:45:29;6.20;58.10
83683;DHT22;73663;51.298;5.802;2024-01-15T21:50:29;6.20;58.10
83683;DHT22;73663;51.298;5.802;2024-01-15T21:55:30;6.20;58.10
83683;DHT22;73663;51.298;5.802;2024-01-15T22:00:31;6.10;58.10
83683;DHT22;73663;51.298;5.802;2024-01-15T22:05:31;6.20;58.00
83683;DHT22;73663;51.298;5.802;2024-01-15T22:10:32;6.20;58.10
83683;DHT22;73663;51.298;5.802;2024-01-15T22:15:32;6.20;58.10
83683;DHT22;73663;51.298;5.802;2024-01-15T22:20:33;6.20;58.20
83683;DHT22;73663;51.298;5.802;2024-01-15T22:25:34;6.20;58.20
83683;DHT22;73663;51.298;5.802;2024-01-15T22:30:35;6.20;58.10
83683;DHT22;73663;51.298;5.802;2024-01-15T22:35:35;6.30;58.20
83683;DHT22;73663;51.298;5.802;2024-01-15T22:40:36;6.30;58.10
83683;DHT22;73663;51.298;5.802;2024-01-15T22:45:36;6.30;58.20
83683;DHT22;73663;51.298;5.802;2024-01-15T22:50:37;6.30;58.10
83683;DHT22;73663;51.298;5.802;2024-01-15T22:55:37;6.40;58.20
83683;DHT22;73663;51.298;5.802;2024-01-15T23:00:38;6.40;58.20
83683;DHT22;73663;51.298;5.802;2024-01-15T23:05:43;6.40;58.20
83683;DHT22;73663;51.298;5.802;2024-01-15T23:10:44;6.50;58.20
83683;DHT22;73663;51.298;5.802;2024-01-15T23:15:51;6.50;58.20
83683;DHT22;73663;51.298;5.802;2024-01-15T23:20:51;6.50;58.20
83683;DHT22;73663;51.298;5.802;2024-01-15T23:25:52;6.50;58.20
83683;DHT22;73663;51.298;5.802;2024-01-15T23:30:52;6.50;58.20
83683;DHT22;73663;51.298;5.802;2024-01-15T23:35:53;6.50;58.20
83683;DHT22;73663;51.298;5.802;2024-01-15T23:40:54;6.40;58.10
83683;DHT22;73663;51.298;5.802;2024-01-15T23:45:56;6.40;58.20
83683;DHT22;73663;51.298;5.802;2024-01-15T23:50:56;6.40;58.20
83683;DHT22;73663;51.298;5.802;2024-01-15T23:55:57;6.40;58.10
